createdAt,value
2023-04-02T00:00:34.463Z,99753.38
2023-04-02T00:03:03.880Z,99756.13
2023-04-02T00:05:49.932Z,99760.56
2023-04-02T00:08:26.453Z,99762.91
2023-04-02T00:10:56.633Z,99764.50
2023-04-02T00:13:43.569Z,99769.25
2023-04-02T00:16:23.895Z,99769.25
2023-04-02T00:18:55.525Z,99776.72
2023-04-02T00:21:26.058Z,99768.38
2023-04-02T00:23:58.920Z,99778.00
2023-04-02T00:26:36.682Z,99781.19
2023-04-02T00:29:07.593Z,99782.38
2023-04-02T00:31:39.031Z,99791.53
2023-04-02T00:34:09.080Z,99790.41
2023-04-02T00:36:36.842Z,99786.75
2023-04-02T00:39:12.962Z,99801.06
2023-04-02T00:41:39.494Z,99792.31
2023-04-02T00:44:06.095Z,99801.06
2023-04-02T00:46:49.574Z,99809.41
2023-04-02T00:49:31.474Z,99807.53
2023-04-02T06:33:30.594Z,100416.03
2023-04-02T06:35:57.881Z,100418.41
2023-04-02T06:38:29.826Z,100429.00
2023-04-02T06:41:05.255Z,100434.91
2023-04-02T06:43:40.972Z,100438.84
2023-04-02T06:46:19.918Z,100449.97
2023-04-02T06:48:49.646Z,100456.34
2023-04-02T06:51:20.286Z,100461.88
2023-04-02T06:53:49.178Z,100471.66
2023-04-02T06:56:22.725Z,100472.94
2023-04-02T06:58:49.439Z,100479.44
2023-04-02T07:01:19.470Z,100486.72
2023-04-02T07:03:46.184Z,100496.53
2023-04-02T07:06:18.279Z,100495.34
2023-04-02T07:08:46.430Z,100497.91
2023-04-02T07:11:20.878Z,100510.78
2023-04-02T07:13:49.046Z,100519.63
2023-04-02T07:16:27.453Z,100533.09
2023-04-02T07:18:55.788Z,100534.97
2023-04-02T07:21:24.418Z,100543.06
2023-04-02T07:23:51.157Z,100551.38
2023-04-02T07:26:25.304Z,100550.56
2023-04-02T07:28:52.031Z,100556.84
2023-04-02T07:31:23.449Z,100561.16
2023-04-02T07:33:51.172Z,100569.84
2023-04-02T07:36:23.391Z,100565.63
2023-04-02T07:38:52.215Z,100575.66
2023-04-02T07:41:20.976Z,100576.03
2023-04-02T07:43:48.054Z,100589.84
2023-04-02T07:46:17.437Z,100589.59
2023-04-02T07:48:44.933Z,100603.00
2023-04-02T07:51:18.054Z,100606.88
2023-04-02T07:53:44.491Z,100609.47
2023-04-02T07:56:15.041Z,100613.50
2023-04-02T07:58:42.298Z,100631.25
2023-04-02T08:01:17.270Z,100629.44
2023-04-02T08:03:44.526Z,100637.72
2023-04-02T08:06:12.370Z,100651.66
2023-04-02T08:08:39.364Z,100654.53
2023-04-02T08:11:06.100Z,100651.03
2023-04-02T08:13:33.420Z,100661.88
2023-04-02T08:16:01.749Z,100671.56
2023-04-02T08:18:29.783Z,100671.66
2023-04-02T08:20:57.152Z,100684.41
2023-04-02T08:23:24.148Z,100685.28
2023-04-02T08:25:50.887Z,100695.44
2023-04-02T08:28:18.012Z,100696.44
2023-04-02T08:30:45.797Z,100706.97
2023-04-02T08:33:12.594Z,100705.63
2023-04-02T08:35:40.018Z,100718.53
2023-04-02T08:38:07.164Z,100727.81
2023-04-02T08:40:38.601Z,100724.47
2023-04-02T08:43:29.168Z,100740.34
2023-04-02T08:45:58.852Z,100745.31
2023-04-02T08:48:25.510Z,100751.44
2023-04-02T08:50:52.748Z,100756.06
2023-04-02T08:53:26.576Z,100765.72
2023-04-02T08:56:18.924Z,100770.53
2023-04-02T08:58:54.250Z,100775.59
2023-04-02T09:01:36.776Z,100776.75
2023-04-02T09:04:13.156Z,100781.09
2023-04-02T09:06:40.983Z,100783.75
2023-04-02T09:09:08.946Z,100791.69
2023-04-02T09:11:47.669Z,100792.59
2023-04-02T09:14:34.406Z,100802.88
2023-04-02T09:17:03.698Z,100799.22
2023-04-02T09:19:37.823Z,100810.88
2023-04-02T09:22:31.620Z,100810.84
2023-04-02T09:25:01.099Z,100818.31
2023-04-02T09:27:34.382Z,100820.91
2023-04-02T09:30:33.265Z,100827.28
2023-04-02T09:33:02.557Z,100829.59
2023-04-02T09:35:34.458Z,100834.31
2023-04-02T09:38:09.849Z,100844.25
2023-04-02T09:40:51.652Z,100852.31
2023-04-02T09:43:24.040Z,100861.88
2023-04-02T09:45:56.487Z,100862.97
2023-04-02T09:48:30.043Z,100867.97
2023-04-02T09:51:23.493Z,100875.38
2023-04-02T09:54:07.205Z,100884.44
2023-04-02T09:56:35.762Z,100890.50
2023-04-02T09:59:12.968Z,100885.88
2023-04-02T10:01:57.447Z,100888.41
2023-04-02T10:04:47.772Z,100896.03
2023-04-02T10:07:36.396Z,100908.72
2023-04-02T10:10:18.136Z,100903.06
2023-04-02T10:12:56.728Z,100912.16
2023-04-02T10:15:35.179Z,100910.22
2023-04-02T10:18:12.322Z,100922.69
2023-04-02T10:20:50.575Z,100931.84
2023-04-02T10:23:19.484Z,100934.25
2023-04-02T10:26:23.745Z,100945.66
2023-04-02T10:29:07.954Z,100948.69
2023-04-02T10:31:41.030Z,100951.22
2023-04-02T10:34:17.344Z,100957.13
2023-04-02T10:36:54.236Z,100958.88
2023-04-02T10:39:32.901Z,100970.72
2023-04-02T10:42:18.529Z,100966.06
2023-04-02T10:45:36.724Z,100969.41
2023-04-02T10:48:28.554Z,100974.22
2023-04-02T10:51:07.042Z,100989.63
2023-04-02T10:53:48.875Z,100991.47
2023-04-02T10:56:15.472Z,101002.38
2023-04-02T10:58:59.518Z,101005.41
2023-04-02T11:01:29.494Z,101010.16
2023-04-02T11:04:01.844Z,101015.94
2023-04-02T11:06:41.753Z,101018.38
2023-04-02T11:09:18.177Z,101023.56
2023-04-02T11:11:48.644Z,101027.16
2023-04-02T11:14:26.442Z,101035.50
2023-04-02T11:16:55.068Z,101032.78
2023-04-02T11:19:30.243Z,101031.66
2023-04-02T11:22:04.338Z,101045.34
2023-04-02T11:24:42.936Z,101048.41
2023-04-02T11:27:11.987Z,101047.50
2023-04-02T11:29:58.906Z,101048.88
2023-04-02T11:32:39.125Z,101053.44
2023-04-02T11:35:30.592Z,101067.34
2023-04-02T11:38:05.870Z,101056.22
2023-04-02T11:40:47.746Z,101073.72
2023-04-02T11:43:35.373Z,101074.88
2023-04-02T11:46:03.597Z,101080.91
2023-04-02T11:48:36.160Z,101077.63
2023-04-02T11:51:22.302Z,101082.56
2023-04-02T11:53:51.643Z,101085.41
2023-04-02T11:56:31.562Z,101086.09
2023-04-02T11:59:27.400Z,101091.69
2023-04-02T12:02:09.555Z,101090.50
2023-04-02T12:05:07.458Z,101093.47
2023-04-02T12:07:56.637Z,101098.00
2023-04-02T12:10:28.420Z,101103.91
2023-04-02T12:12:54.927Z,101107.31
2023-04-02T12:15:31.530Z,101114.22
2023-04-02T12:18:16.993Z,101115.13
2023-04-02T12:20:52.856Z,101119.66
2023-04-02T12:23:22.630Z,101120.22
2023-04-02T12:26:01.249Z,101114.63
2023-04-02T12:28:31.022Z,101117.47
2023-04-02T12:31:18.438Z,101121.16
2023-04-02T12:33:45.713Z,101138.06
2023-04-02T12:36:14.097Z,101139.59
2023-04-02T12:38:45.618Z,101136.28
2023-04-02T12:41:30.784Z,101148.28
2023-04-02T12:44:04.024Z,101145.44
2023-04-02T12:46:31.946Z,101157.53
2023-04-02T12:49:05.888Z,101151.50
2023-04-02T12:51:36.236Z,101142.59
2023-04-02T12:54:04.554Z,101160.38
2023-04-02T12:56:31.362Z,101158.78
2023-04-02T12:58:58.777Z,101161.25
2023-04-02T13:01:31.436Z,101162.38
2023-04-02T13:04:06.200Z,101160.53
2023-04-02T13:06:35.182Z,101167.94
2023-04-02T13:09:04.866Z,101173.69
2023-04-02T13:11:41.898Z,101176.88
2023-04-02T13:14:17.980Z,101189.28
2023-04-02T13:16:44.488Z,101188.25
2023-04-02T13:19:16.731Z,101188.06
2023-04-02T13:21:44.713Z,101196.53
2023-04-02T13:24:22.952Z,101186.31
2023-04-02T13:26:51.202Z,101190.94
2023-04-02T13:29:25.778Z,101191.63
2023-04-02T13:31:55.793Z,101190.84
2023-04-02T13:34:22.695Z,101193.44
2023-04-02T13:36:49.472Z,101190.19
2023-04-02T13:39:16.555Z,101187.97
2023-04-02T13:41:45.766Z,101192.09
2023-04-02T13:44:27.927Z,101194.59
2023-04-02T13:46:55.658Z,101195.06
2023-04-02T13:49:23.363Z,101199.25
2023-04-02T13:51:58.011Z,101200.94
2023-04-02T13:54:37.162Z,101199.38
2023-04-02T13:57:03.771Z,101221.00
2023-04-02T13:59:30.264Z,101219.63
2023-04-02T14:02:03.148Z,101216.13
2023-04-02T14:04:33.200Z,101231.91
2023-04-02T14:07:14.960Z,101229.34
2023-04-02T14:10:03.839Z,101228.75
2023-04-02T14:12:51.951Z,101237.59
2023-04-02T14:15:37.107Z,101238.75
2023-04-02T14:18:36.528Z,101244.66
2023-04-02T14:21:10.835Z,101245.69
2023-04-02T14:23:58.418Z,101242.00
2023-04-02T14:27:18.710Z,101242.09
2023-04-02T14:30:04.272Z,101258.63
2023-04-02T14:32:55.405Z,101262.22
2023-04-02T14:35:37.191Z,101273.63
2023-04-02T14:38:26.704Z,101269.69
2023-04-02T14:41:02.052Z,101271.81
2023-04-02T14:43:54.345Z,101273.88
2023-04-02T14:46:26.481Z,101276.19
2023-04-02T14:49:01.628Z,101293.13
2023-04-02T14:51:37.463Z,101284.75
2023-04-02T14:54:11.068Z,101280.50
2023-04-02T14:56:55.378Z,101280.81
2023-04-02T14:59:35.468Z,101285.47
2023-04-02T15:02:13.259Z,101292.09
2023-04-02T15:05:01.221Z,101291.34
2023-04-02T15:07:38.949Z,101290.53
2023-04-02T15:10:23.859Z,101296.22
2023-04-02T15:12:52.236Z,101296.25
2023-04-02T15:15:44.473Z,101297.06
2023-04-02T15:18:15.402Z,101297.97
2023-04-02T15:20:55.573Z,101298.22
2023-04-02T15:23:41.651Z,101301.69
2023-04-02T15:26:14.137Z,101311.91
2023-04-02T15:28:47.595Z,101309.78
2023-04-02T15:31:15.039Z,101307.41
2023-04-02T15:33:44.499Z,101317.16
2023-04-02T15:36:31.327Z,101315.81
2023-04-02T15:39:11.074Z,101319.75
2023-04-02T15:41:47.585Z,101325.06
2023-04-02T15:44:17.030Z,101329.81
2023-04-02T15:46:57.093Z,101329.41
2023-04-02T15:49:29.292Z,101339.09
2023-04-02T15:52:34.152Z,101349.47
2023-04-02T15:55:25.572Z,101354.63
2023-04-02T15:58:19.995Z,101355.56
2023-04-02T16:01:02.196Z,101361.41
2023-04-02T16:03:48.224Z,101361.81
2023-04-02T16:06:26.070Z,101365.47
2023-04-02T16:09:21.668Z,101371.72
2023-04-02T16:11:55.818Z,101378.91
2023-04-02T16:14:33.068Z,101381.88
2023-04-02T16:17:14.235Z,101384.69
2023-04-02T16:19:50.562Z,101386.94
2023-04-02T16:22:17.226Z,101399.69
2023-04-02T16:24:48.664Z,101405.38
2023-04-02T16:27:40.214Z,101399.81
2023-04-02T16:30:22.505Z,101423.38
2023-04-02T16:33:14.249Z,101416.97
2023-04-02T16:36:06.991Z,101420.63
2023-04-02T16:38:54.019Z,101422.28
2023-04-02T16:42:00.077Z,101434.56
2023-04-02T16:44:39.959Z,101441.63
2023-04-02T16:47:29.377Z,101441.38
2023-04-02T16:49:59.770Z,101453.97
2023-04-02T16:52:32.231Z,101461.44
2023-04-02T16:55:29.709Z,101458.75
2023-04-02T16:58:11.556Z,101471.16
2023-04-02T17:00:42.242Z,101466.28
2023-04-02T17:03:38.891Z,101487.66
2023-04-02T17:06:09.206Z,101493.88
2023-04-02T17:08:43.577Z,101499.59
2023-04-02T17:11:23.742Z,101503.84
2023-04-02T17:14:07.948Z,101509.22
2023-04-02T17:16:40.562Z,101517.72
2023-04-02T17:19:12.433Z,101526.19
2023-04-02T17:21:43.219Z,101525.69
2023-04-02T17:24:27.944Z,101535.16
2023-04-02T17:27:06.103Z,101532.53
2023-04-02T17:29:37.654Z,101545.41
2023-04-02T17:32:12.037Z,101557.00
2023-04-02T17:34:38.574Z,101561.72
2023-04-02T17:37:05.596Z,101566.91
2023-04-02T17:40:04.593Z,101570.34
2023-04-02T17:42:44.005Z,101578.59
2023-04-02T17:45:23.189Z,101581.72
2023-04-02T17:48:17.954Z,101588.50
2023-04-02T17:51:02.760Z,101597.69
2023-04-02T17:53:39.328Z,101604.13
2023-04-02T17:56:17.281Z,101607.38
2023-04-02T17:59:13.139Z,101602.66
2023-04-02T18:01:53.879Z,101620.28
2023-04-02T18:04:42.455Z,101618.88
2023-04-02T18:07:36.721Z,101624.28
2023-04-02T18:10:35.830Z,101633.94
2023-04-02T18:13:13.137Z,101635.38
2023-04-02T18:16:35.570Z,101640.88
2023-04-02T18:19:19.064Z,101641.56
2023-04-02T18:22:04.460Z,101647.38
2023-04-02T18:24:31.499Z,101654.41
2023-04-02T18:27:10.969Z,101661.94
2023-04-02T18:29:49.165Z,101661.56
2023-04-02T18:32:47.185Z,101662.22
2023-04-02T18:35:32.617Z,101670.34
2023-04-02T18:38:21.355Z,101678.88
2023-04-02T18:41:01.676Z,101671.84
2023-04-02T18:44:00.964Z,101671.66
2023-04-02T18:46:36.830Z,101680.78
2023-04-02T18:49:24.583Z,101677.06
2023-04-02T18:51:57.171Z,101687.94
2023-04-02T18:54:32.766Z,101687.13
2023-04-02T18:57:02.648Z,101703.22
2023-04-02T18:59:47.837Z,101709.28
2023-04-02T19:02:20.380Z,101704.75
2023-04-02T19:04:58.198Z,101704.56
2023-04-02T19:07:28.852Z,101712.06
2023-04-02T19:09:58.825Z,101723.66
2023-04-02T19:12:25.428Z,101723.09
2023-04-02T19:14:52.633Z,101721.63
2023-04-02T19:17:40.729Z,101730.31
2023-04-02T19:20:10.688Z,101733.78
2023-04-02T19:23:00.772Z,101727.09
2023-04-02T19:25:51.136Z,101736.34
2023-04-02T19:28:29.936Z,101736.41
2023-04-02T19:31:29.289Z,101740.56
2023-04-02T19:34:21.802Z,101742.53
2023-04-02T19:36:57.033Z,101749.69
2023-04-02T19:39:26.625Z,101743.34
2023-04-02T19:42:00.525Z,101750.13
2023-04-02T19:44:27.219Z,101751.13
2023-04-02T19:46:53.897Z,101757.94
2023-04-02T19:49:28.401Z,101764.94
2023-04-02T19:51:55.644Z,101768.00
2023-04-02T19:54:22.695Z,101771.81
2023-04-02T19:56:49.484Z,101771.28
2023-04-02T19:59:18.505Z,101771.91
2023-04-02T20:01:46.340Z,101768.63
2023-04-02T20:04:13.319Z,101783.81
2023-04-02T20:06:39.819Z,101781.72
2023-04-02T20:09:08.041Z,101781.66
2023-04-02T20:11:36.122Z,101779.06
2023-04-02T20:14:03.168Z,101786.06
2023-04-02T20:16:29.601Z,101794.38
2023-04-02T20:18:56.738Z,101789.34
2023-04-02T20:21:23.312Z,101792.63
2023-04-02T20:23:56.302Z,101791.59
2023-04-02T20:26:23.177Z,101790.97
2023-04-02T20:28:49.984Z,101794.50
2023-04-02T20:31:18.248Z,101803.09
2023-04-02T20:33:45.516Z,101796.63
2023-04-02T20:36:15.594Z,101805.56
2023-04-02T20:38:43.460Z,101806.41
2023-04-02T20:41:10.226Z,101802.56
2023-04-02T20:43:37.389Z,101817.03
2023-04-02T20:46:06.417Z,101819.94
2023-04-02T20:48:36.050Z,101814.63
2023-04-02T20:51:05.490Z,101820.97
2023-04-02T20:53:34.523Z,101820.97
2023-04-02T20:56:16.068Z,101826.91
2023-04-02T20:58:45.578Z,101824.56
2023-04-02T21:01:18.339Z,101832.38
2023-04-02T21:03:45.352Z,101827.94
2023-04-02T21:06:13.247Z,101826.59
2023-04-02T21:08:40.145Z,101836.78
2023-04-02T21:11:07.309Z,101844.03
2023-04-02T21:13:37.754Z,101843.84
2023-04-02T21:16:38.075Z,101847.22
2023-04-02T21:19:08.296Z,101846.81
2023-04-02T21:21:36.054Z,101848.38
2023-04-02T21:24:05.564Z,101838.44
2023-04-02T21:26:35.125Z,101850.50
2023-04-02T21:29:01.885Z,101835.97
2023-04-02T21:31:30.648Z,101844.16
2023-04-02T21:33:58.361Z,101849.09
2023-04-02T21:36:33.764Z,101847.44
2023-04-02T21:39:03.382Z,101850.31
2023-04-02T21:41:32.974Z,101853.63
2023-04-02T21:44:02.987Z,101838.44
2023-04-02T21:46:31.568Z,101851.44
2023-04-02T21:48:59.463Z,101849.19
2023-04-02T21:51:28.731Z,101853.72
2023-04-02T21:53:55.869Z,101851.56
2023-04-02T21:56:28.543Z,101850.84
2023-04-02T21:58:56.803Z,101850.44
2023-04-02T22:01:28.045Z,101853.63
2023-04-02T22:03:56.437Z,101855.44
2023-04-02T22:06:25.364Z,101858.53
2023-04-02T22:09:05.015Z,101857.31
2023-04-02T22:11:34.159Z,101863.25
2023-04-02T22:14:03.227Z,101844.72
2023-04-02T22:16:31.774Z,101853.75
2023-04-02T22:19:02.182Z,101859.03
2023-04-02T22:21:30.943Z,101865.09
2023-04-02T22:24:03.090Z,101868.97
2023-04-02T22:26:30.271Z,101868.16
2023-04-02T22:28:57.156Z,101872.38
2023-04-02T22:31:26.498Z,101871.13
2023-04-02T22:33:54.841Z,101877.78
2023-04-02T22:36:22.724Z,101880.31
2023-04-02T22:38:51.796Z,101882.78
2023-04-02T22:41:26.237Z,101891.34
2023-04-02T22:43:53.546Z,101882.63
2023-04-02T22:46:21.686Z,101888.34
2023-04-02T22:48:49.348Z,101882.03
2023-04-02T22:51:18.247Z,101881.28
2023-04-02T22:53:45.734Z,101893.78
2023-04-02T22:56:21.865Z,101894.38
2023-04-02T22:58:49.327Z,101896.63
2023-04-02T23:01:25.679Z,101905.00
2023-04-02T23:03:53.937Z,101891.53
2023-04-02T23:06:21.032Z,101907.66
2023-04-02T23:08:47.724Z,101898.63
2023-04-02T23:11:19.917Z,101894.03
2023-04-02T23:13:48.842Z,101893.63
2023-04-02T23:16:16.753Z,101898.94
2023-04-02T23:18:47.145Z,101903.03
2023-04-02T23:21:14.620Z,101901.91
2023-04-02T23:23:41.939Z,101893.63
2023-04-02T23:26:14.750Z,101906.63
2023-04-02T23:28:41.174Z,101901.69
2023-04-02T23:31:13.178Z,101902.56
2023-04-02T23:33:40.359Z,101899.97
2023-04-02T23:36:10.678Z,101904.66
2023-04-02T23:38:37.954Z,101900.94
2023-04-02T23:41:04.547Z,101909.41
2023-04-02T23:43:31.401Z,101911.41
2023-04-02T23:45:58.161Z,101917.06
2023-04-02T23:48:24.733Z,101913.69
2023-04-02T23:50:51.215Z,101909.97
2023-04-02T23:53:18.575Z,101908.56
2023-04-02T23:55:45.710Z,101915.25
2023-04-02T23:58:12.174Z,101913.41
